Welcome to Northern Hawkes Bay. New Zealand.
PWS Header
      nz Flag



Hit Counter


W3C Valid W3C Valid logo


    Wairoa

Select any of the Stations below to visit their websites.










Historic Data from Weather Underground
Select the location of interest below. Wairoa is the default. Please have patience, this Data is slow to load in.
Northern Hawkes Bay Historical Data
Daily Summary for March 29, 2017 Units:  Metric    English   Both
« Previous Day
Next Day »
Daily Weekly Monthly Yearly Custom
  High: Low: Average:
Temperature: 25.1 °C 17.3 °C 20.4 °C
Dew Point: 21.2 °C 14.4 °C 17.8 °C
Humidity: 99% 54% 86%
Wind Speed: 21.9km/h 0.0km/h 6.3km/h
Wind Gust: 30.6km/h - -
Wind- - SE
Pressure: 1014.8 hPa 1010.7 hPa -
Precipitation: 9.4 mm    
Historical Graphs
 
 
Tabular Data for March 29, 2017
Time Temperature Dew Point Pressure Wind Wind Speed Wind Gust Humidity Rainfall Rate (Hourly) solar
00:04 17.3 °C 16.8 °C 1014.8 hPa SSW 6.1 km/h 13.4 km/h 97% 2.0 mm 0 W/m2
00:10 17.3 °C 16.8 °C 1014.8 hPa SW 7.2 km/h 13.4 km/h 97% 2.0 mm 0 W/m2
00:16 17.4 °C 16.9 °C 1014.4 hPa SSW 9.7 km/h 17.2 km/h 97% 1.8 mm 0 W/m2
00:22 17.4 °C 16.9 °C 1014.1 hPa SSW 14.8 km/h 25.6 km/h 97% 1.8 mm 0 W/m2
00:28 17.5 °C 17.1 °C 1013.8 hPa SSW 13.4 km/h 25.6 km/h 97% 1.5 mm 0 W/m2
00:34 17.6 °C 17.1 °C 1014.1 hPa SSW 7.2 km/h 24.5 km/h 97% 1.5 mm 0 W/m2
00:40 17.6 °C 17.1 °C 1014.1 hPa SSW 13.4 km/h 24.5 km/h 97% 1.3 mm 0 W/m2
00:46 17.6 °C 17.1 °C 1014.1 hPa South 18.3 km/h 28.0 km/h 97% 1.3 mm 0 W/m2
00:52 17.6 °C 17.1 °C 1013.8 hPa South 14.8 km/h 28.0 km/h 97% 1.0 mm 0 W/m2
00:58 17.7 °C 17.2 °C 1013.8 hPa SSW 11.1 km/h 27.0 km/h 97% 0.5 mm 0 W/m2
01:04 17.7 °C 17.2 °C 1013.8 hPa SSW 15.8 km/h 27.0 km/h 97% 0.5 mm 0 W/m2
01:10 17.7 °C 17.2 °C 1013.8 hPa SSW 15.8 km/h 29.4 km/h 97% 0.3 mm 0 W/m2
01:16 17.8 °C 17.3 °C 1013.8 hPa SSW 17.2 km/h 29.4 km/h 97% 0.3 mm 0 W/m2
01:22 17.8 °C 17.3 °C 1013.4 hPa SSW 15.8 km/h 28.0 km/h 97% 0.3 mm 0 W/m2
01:28 17.8 °C 17.3 °C 1013.8 hPa SSW 15.8 km/h 27.0 km/h 97% 0.5 mm 0 W/m2
01:34 17.8 °C 17.3 °C 1013.8 hPa South 14.8 km/h 27.0 km/h 97% 1.3 mm 0 W/m2
01:40 17.8 °C 17.3 °C 1013.4 hPa South 14.8 km/h 24.5 km/h 97% 1.8 mm 0 W/m2
01:46 17.9 °C 17.4 °C 1013.8 hPa South 12.2 km/h 23.3 km/h 97% 2.0 mm 0 W/m2
01:52 17.9 °C 17.4 °C 1013.8 hPa SSE 11.1 km/h 21.9 km/h 97% 2.0 mm 0 W/m2
01:58 17.9 °C 17.4 °C 1013.4 hPa South 14.8 km/h 24.5 km/h 97% 2.3 mm 0 W/m2
02:06 18.0 °C 17.8 °C 1013.4 hPa South 6.1 km/h 24.5 km/h 99% 2.8 mm 0 W/m2
02:12 18.3 °C 18.2 °C 1013.4 hPa South 11.1 km/h 25.6 km/h 99% 3.3 mm 0 W/m2
02:18 18.2 °C 18.1 °C 1013.1 hPa South 9.7 km/h 28.0 km/h 99% 3.8 mm 0 W/m2
02:24 18.2 °C 18.1 °C 1012.8 hPa South 14.8 km/h 28.0 km/h 99% 3.6 mm 0 W/m2
02:30 18.3 °C 18.2 °C 1013.1 hPa South 8.7 km/h 25.6 km/h 99% 3.3 mm 0 W/m2
02:36 18.4 °C 18.3 °C 1013.1 hPa South 8.7 km/h 19.5 km/h 99% 3.0 mm 0 W/m2
02:42 18.5 °C 18.3 °C 1013.1 hPa SSE 8.7 km/h 19.5 km/h 99% 2.3 mm 0 W/m2
02:48 18.7 °C 18.6 °C 1013.1 hPa South 11.1 km/h 19.5 km/h 99% 2.0 mm 0 W/m2
02:54 18.8 °C 18.7 °C 1013.1 hPa South 5.0 km/h 19.5 km/h 99% 2.0 mm 0 W/m2
03:00 18.8 °C 18.7 °C 1012.8 hPa SSE 6.1 km/h 14.8 km/h 99% 1.5 mm 0 W/m2
03:06 18.8 °C 18.7 °C 1012.8 hPa SSE 5.0 km/h 13.4 km/h 99% 1.5 mm 0 W/m2
03:12 18.8 °C 18.7 °C 1012.8 hPa SSE 5.0 km/h 11.1 km/h 99% 1.0 mm 0 W/m2
03:18 18.8 °C 18.7 °C 1012.8 hPa SSE 5.0 km/h 14.8 km/h 99% 0.3 mm 0 W/m2
03:24 18.8 °C 18.7 °C 1012.4 hPa SSE 3.5 km/h 14.8 km/h 99% 0.3 mm 0 W/m2
03:30 18.7 °C 18.6 °C 1012.4 hPa South 3.5 km/h 12.2 km/h 99% 0.5 mm 0 W/m2
03:36 18.7 °C 18.6 °C 1012.4 hPa Calm   11.1 km/h 99% 0.3 mm 0 W/m2
03:42 18.7 °C 18.6 °C 1012.4 hPa Calm   11.1 km/h 99% 0.3 mm 0 W/m2
03:48 18.8 °C 18.7 °C 1012.1 hPa SSE 12.2 km/h 14.8 km/h 99% 0.3 mm 0 W/m2
03:54 18.8 °C 18.7 °C 1012.1 hPa SSE 2.6 km/h 14.8 km/h 99% 0.3 mm 0 W/m2
04:00 18.7 °C 18.6 °C 1012.1 hPa SSE 9.7 km/h 14.8 km/h 99% 0.3 mm 0 W/m2
04:06 18.8 °C 18.7 °C 1012.1 hPa SE 5.0 km/h 14.8 km/h 99% 0.3 mm 0 W/m2
04:12 18.8 °C 18.7 °C 1012.1 hPa SSE 2.6 km/h 13.4 km/h 99% 0.3 mm 0 W/m2
04:18 18.8 °C 18.7 °C 1012.1 hPa SE 8.7 km/h 17.2 km/h 99% 0.5 mm 0 W/m2
04:24 18.8 °C 18.7 °C 1011.7 hPa South 6.1 km/h 14.8 km/h 99% 0.5 mm 0 W/m2
04:30 18.8 °C 18.7 °C 1012.1 hPa South 8.7 km/h 17.2 km/h 99% 0.5 mm 0 W/m2
04:36 18.8 °C 18.7 °C 1011.4 hPa South 7.2 km/h 17.2 km/h 99% 1.0 mm 0 W/m2
04:42 18.8 °C 18.7 °C 1011.7 hPa South 11.1 km/h 15.8 km/h 99% 1.0 mm 0 W/m2
04:48 18.8 °C 18.7 °C 1011.4 hPa South 9.7 km/h 21.9 km/h 99% 1.3 mm 0 W/m2
04:54 18.8 °C 18.7 °C 1011.4 hPa SSE 3.5 km/h 21.9 km/h 99% 1.3 mm 0 W/m2
05:00 18.8 °C 18.7 °C 1011.4 hPa SSE 12.2 km/h 17.2 km/h 99% 1.5 mm 0 W/m2
05:06 18.8 °C 18.7 °C 1011.4 hPa SSE 9.7 km/h 18.3 km/h 99% 1.5 mm 0 W/m2
05:12 18.8 °C 18.7 °C 1011.4 hPa South 13.4 km/h 18.3 km/h 99% 1.5 mm 0 W/m2
05:18 18.9 °C 18.8 °C 1011.4 hPa South 7.2 km/h 18.3 km/h 99% 1.3 mm 0 W/m2
05:24 18.9 °C 18.8 °C 1011.4 hPa South 7.2 km/h 17.2 km/h 99% 1.3 mm 0 W/m2
05:30 18.9 °C 18.8 °C 1011.4 hPa South 6.1 km/h 14.8 km/h 99% 1.0 mm 0 W/m2
05:35 18.9 °C 18.8 °C 1011.4 hPa SSE 1.1 km/h 13.4 km/h 99% 0.5 mm 0 W/m2
05:42 18.9 °C 18.8 °C 1011.4 hPa Calm   6.1 km/h 99% 0.3 mm 0 W/m2
05:48 18.8 °C 18.7 °C 1011.4 hPa SE 6.1 km/h 9.7 km/h 99% 0.3 mm 0 W/m2
05:54 18.8 °C 18.7 °C 1011.4 hPa ESE 2.6 km/h 11.1 km/h 99% 0.3 mm 0 W/m2
06:00 18.8 °C 18.7 °C 1011.4 hPa ESE 5.0 km/h 15.8 km/h 99% 0.0 mm 0 W/m2
06:06 18.8 °C 18.7 °C 1011.4 hPa ESE 1.1 km/h 15.8 km/h 99% 0.0 mm 0 W/m2
06:12 18.8 °C 18.7 °C 1011.1 hPa Calm   7.2 km/h 99% 0.0 mm 0 W/m2
06:18 18.8 °C 18.7 °C 1011.1 hPa SSE 1.1 km/h 9.7 km/h 99% 0.0 mm 0 W/m2
06:40 18.8 °C 18.7 °C 1011.1 hPa South 1.1 km/h 12.2 km/h 99% 0.3 mm 0 W/m2
06:46 18.8 °C 18.7 °C 1011.1 hPa Calm   11.1 km/h 99% 0.3 mm 0 W/m2
06:51 18.8 °C 18.7 °C 1011.1 hPa South 2.6 km/h 5.0 km/h 99% 0.3 mm 0 W/m2
06:58 18.8 °C 18.7 °C 1010.7 hPa SW 5.0 km/h 8.7 km/h 99% 0.3 mm 0 W/m2
07:03 18.8 °C 18.7 °C 1011.1 hPa SSW 3.5 km/h 11.1 km/h 99% 0.3 mm 0 W/m2
07:10 18.9 °C 18.8 °C 1011.1 hPa South 7.2 km/h 13.4 km/h 99% 0.3 mm 0 W/m2
07:16 18.9 °C 18.8 °C 1011.1 hPa Calm   13.4 km/h 99% 0.3 mm 0 W/m2
07:22 18.9 °C 18.8 °C 1011.1 hPa South 3.5 km/h 13.4 km/h 99% 0.3 mm 0 W/m2
07:28 18.9 °C 18.8 °C 1011.1 hPa Calm   9.7 km/h 99% 0.3 mm 0 W/m2
07:34 18.9 °C 18.8 °C 1011.1 hPa Calm   8.7 km/h 99% 0.0 mm 0 W/m2
07:40 18.9 °C 18.8 °C 1011.1 hPa Calm   8.7 km/h 99% 0.0 mm 2 W/m2
07:45 18.9 °C 18.8 °C 1010.7 hPa Calm   6.1 km/h 99% 0.0 mm 21 W/m2
07:51 19.0 °C 18.8 °C 1011.1 hPa Calm   11.1 km/h 99% 0.0 mm 39 W/m2
07:57 19.0 °C 18.8 °C 1011.1 hPa Calm   11.1 km/h 99% 0.0 mm 28 W/m2
08:03 19.0 °C 18.8 °C 1011.4 hPa Calm     99% 0.0 mm 26 W/m2
08:10 19.0 °C 18.8 °C 1011.4 hPa Calm     99% 0.0 mm 29 W/m2
08:15 19.0 °C 18.8 °C 1011.1 hPa Calm   1.1 km/h 99% 0.0 mm 25 W/m2
08:22 19.0 °C 18.8 °C 1011.1 hPa Calm   1.1 km/h 99% 0.0 mm 41 W/m2
08:28 19.2 °C 19.1 °C 1011.1 hPa Calm     99% 0.0 mm 82 W/m2
08:33 19.5 °C 19.3 °C 1011.4 hPa Calm     99% 0.0 mm 127 W/m2
08:40 19.7 °C 19.6 °C 1011.4 hPa Calm     99% 0.0 mm 145 W/m2
08:46 19.7 °C 19.6 °C 1011.4 hPa SSW 2.6 km/h 8.7 km/h 99% 0.0 mm 133 W/m2
08:52 19.6 °C 19.4 °C 1011.4 hPa Calm   9.7 km/h 99% 0.0 mm 107 W/m2
08:57 19.6 °C 19.4 °C 1011.4 hPa Calm   9.7 km/h 99% 0.0 mm 102 W/m2
09:03 19.6 °C 19.4 °C 1011.4 hPa Calm   9.7 km/h 99% 0.0 mm 119 W/m2
09:10 19.6 °C 19.4 °C 1011.4 hPa Calm   7.2 km/h 99% 0.0 mm 148 W/m2
09:16 19.8 °C 19.7 °C 1011.4 hPa Calm   6.1 km/h 99% 0.0 mm 136 W/m2
09:21 19.9 °C 19.8 °C 1011.4 hPa Calm   5.0 km/h 99% 0.0 mm 168 W/m2
09:27 20.1 °C 19.9 °C 1011.7 hPa Calm   5.0 km/h 99% 0.0 mm 150 W/m2
09:34 20.0 °C 19.8 °C 1011.7 hPa Calm     99% 0.0 mm 162 W/m2
09:40 20.1 °C 19.9 °C 1011.7 hPa Calm     99% 0.0 mm 163 W/m2
09:45 20.3 °C 20.2 °C 1011.7 hPa Calm   1.1 km/h 99% 0.0 mm 425 W/m2
09:51 20.9 °C 20.8 °C 1011.7 hPa Calm   1.1 km/h 99% 0.0 mm 384 W/m2
09:57 21.5 °C 21.2 °C 1011.7 hPa Calm     98% 0.0 mm 234 W/m2
10:03 21.3 °C 20.7 °C 1011.7 hPa Calm     96% 0.3 mm 176 W/m2
10:11 21.2 °C 20.6 °C 1011.7 hPa Calm     96% 0.3 mm 225 W/m2
10:17 21.7 °C 20.9 °C 1011.7 hPa Calm     95% 0.3 mm 456 W/m2
10:23 22.1 °C 20.8 °C 1011.7 hPa Calm     92% 0.3 mm 551 W/m2
10:30 22.3 °C 20.6 °C 1011.7 hPa Calm     90% 0.3 mm 273 W/m2
10:35 21.9 °C 19.8 °C 1012.1 hPa Calm     88% 0.3 mm 252 W/m2
10:41 22.2 °C 20.5 °C 1012.1 hPa Calm     90% 0.3 mm 256 W/m2
10:47 21.8 °C 19.6 °C 1012.1 hPa Calm   1.1 km/h 87% 0.3 mm 182 W/m2
10:53 21.5 °C 19.4 °C 1011.7 hPa Calm   1.1 km/h 88% 0.3 mm 287 W/m2
11:00 22.5 °C 20.2 °C 1011.7 hPa Calm     87% 0.0 mm 228 W/m2
11:05 23.4 °C 20.8 °C 1011.7 hPa Calm   3.5 km/h 85% 0.0 mm 158 W/m2
11:12 23.5 °C 19.9 °C 1011.4 hPa SE 2.6 km/h 7.2 km/h 80% 0.0 mm 273 W/m2
11:17 23.1 °C 20.3 °C 1011.4 hPa Calm   7.2 km/h 84% 0.0 mm 282 W/m2
11:23 22.8 °C 19.6 °C 1011.4 hPa Calm   6.1 km/h 82% 0.0 mm 308 W/m2
11:30 22.8 °C 20.0 °C 1011.7 hPa Calm   6.1 km/h 84% 0.0 mm 247 W/m2
11:35 22.9 °C 19.7 °C 1011.4 hPa Calm   7.2 km/h 82% 0.0 mm 263 W/m2
11:41 22.2 °C 19.2 °C 1011.4 hPa South 6.1 km/h 11.1 km/h 83% 0.0 mm 199 W/m2
11:47 21.7 °C 19.3 °C 1011.4 hPa Calm   11.1 km/h 86% 0.0 mm 208 W/m2
11:53 21.7 °C 19.4 °C 1011.4 hPa South 6.1 km/h 11.1 km/h 87% 0.0 mm 527 W/m2
12:00 21.9 °C 19.7 °C 1011.7 hPa South 1.1 km/h 11.1 km/h 87% 0.0 mm 165 W/m2
12:05 22.3 °C 19.9 °C 1011.4 hPa SSE 8.7 km/h 12.2 km/h 86% 0.0 mm 678 W/m2
12:11 22.3 °C 19.7 °C 1011.4 hPa SSW 8.7 km/h 13.4 km/h 85% 0.0 mm 290 W/m2
12:17 22.3 °C 19.9 °C 1011.4 hPa SSW 8.7 km/h 13.4 km/h 86% 0.0 mm 614 W/m2
12:23 22.6 °C 19.9 °C 1011.4 hPa SSW 5.0 km/h 12.2 km/h 85% 0.0 mm 604 W/m2
12:30 22.9 °C 20.3 °C 1011.7 hPa SW 7.2 km/h 12.2 km/h 85% 0.0 mm 613 W/m2
12:35 23.1 °C 20.7 °C 1011.7 hPa SW 9.7 km/h 13.4 km/h 86% 0.0 mm 633 W/m2
12:41 22.9 °C 20.3 °C 1011.7 hPa SSW 9.7 km/h 14.8 km/h 85% 0.0 mm 702 W/m2
12:47 23.0 °C 20.6 °C 1011.4 hPa SSW 9.7 km/h 14.8 km/h 86% 0.0 mm 713 W/m2
12:53 22.9 °C 20.1 °C 1011.7 hPa SSW 9.7 km/h 17.2 km/h 84% 0.0 mm 692 W/m2
13:00 22.6 °C 19.9 °C 1011.4 hPa SSW 12.2 km/h 18.3 km/h 85% 0.0 mm 203 W/m2
13:05 22.2 °C 19.6 °C 1011.7 hPa SSW 8.7 km/h 15.8 km/h 85% 0.0 mm 193 W/m2
13:11 21.7 °C 19.4 °C 1011.4 hPa SW 6.1 km/h 17.2 km/h 87% 0.0 mm 757 W/m2
13:17 22.2 °C 19.8 °C 1011.4 hPa SW 11.1 km/h 14.8 km/h 86% 0.0 mm 667 W/m2
13:23 22.6 °C 19.8 °C 1011.4 hPa South 9.7 km/h 14.8 km/h 84% 0.0 mm 641 W/m2
13:30 23.0 °C 20.4 °C 1011.4 hPa South 9.7 km/h 14.8 km/h 85% 0.0 mm 682 W/m2
13:35 22.9 °C 19.9 °C 1011.4 hPa SW 8.7 km/h 15.8 km/h 83% 0.0 mm 656 W/m2
13:41 22.8 °C 19.8 °C 1011.1 hPa SSW 9.7 km/h 18.3 km/h 83% 0.0 mm 662 W/m2
13:47 23.2 °C 20.4 °C 1011.1 hPa SSW 9.7 km/h 18.3 km/h 84% 0.0 mm 647 W/m2
13:54 22.9 °C 19.9 °C 1011.1 hPa South 7.2 km/h 15.8 km/h 83% 0.0 mm 640 W/m2
14:00 22.4 °C 19.4 °C 1011.1 hPa South 8.7 km/h 15.8 km/h 83% 0.0 mm 606 W/m2
14:05 22.0 °C 19.4 °C 1011.1 hPa South 9.7 km/h 15.8 km/h 85% 0.0 mm 609 W/m2
14:11 21.7 °C 19.3 °C 1011.1 hPa South 9.7 km/h 15.8 km/h 86% 0.0 mm 420 W/m2
14:17 21.4 °C 19.3 °C 1011.1 hPa South 6.1 km/h 15.8 km/h 88% 0.0 mm 615 W/m2
14:23 22.3 °C 19.9 °C 1011.1 hPa South 7.2 km/h 13.4 km/h 86% 0.0 mm 623 W/m2
14:30 22.9 °C 20.1 °C 1011.1 hPa South 8.7 km/h 12.2 km/h 84% 0.0 mm 548 W/m2
14:35 23.2 °C 20.6 °C 1011.1 hPa South 6.1 km/h 13.4 km/h 85% 0.0 mm 615 W/m2
14:41 23.4 °C 20.4 °C 1011.1 hPa SSE 6.1 km/h 13.4 km/h 83% 0.0 mm 480 W/m2
14:47 23.3 °C 20.1 °C 1011.1 hPa SSE 5.0 km/h 12.2 km/h 82% 0.0 mm 140 W/m2
14:53 22.3 °C 19.3 °C 1011.1 hPa South 6.1 km/h 9.7 km/h 83% 0.0 mm 172 W/m2
15:00 21.7 °C 19.3 °C 1011.1 hPa South 6.1 km/h 11.1 km/h 86% 0.0 mm 187 W/m2
15:05 22.1 °C 19.7 °C 1011.1 hPa South 8.7 km/h 11.1 km/h 86% 0.0 mm 595 W/m2
15:11 22.8 °C 20.0 °C 1010.7 hPa South 2.6 km/h 14.8 km/h 84% 0.0 mm 247 W/m2
15:17 23.0 °C 20.2 °C 1011.1 hPa South 1.1 km/h 14.8 km/h 84% 0.0 mm 263 W/m2
15:23 23.9 °C 20.4 °C 1011.1 hPa SSW 1.1 km/h 12.2 km/h 81% 0.0 mm 278 W/m2
15:30 24.0 °C 19.9 °C 1010.7 hPa South 3.5 km/h 12.2 km/h 78% 0.0 mm 291 W/m2
15:35 24.7 °C 19.8 °C 1010.7 hPa SE 11.1 km/h 18.3 km/h 74% 0.0 mm 264 W/m2
15:41 24.6 °C 15.6 °C 1010.7 hPa NNE 5.0 km/h 18.3 km/h 57% 0.0 mm 255 W/m2
15:47 25.1 °C 15.7 °C 1010.7 hPa NNE 8.7 km/h 15.8 km/h 56% 0.0 mm 252 W/m2
15:53 24.9 °C 15.0 °C 1010.7 hPa North 8.7 km/h 20.9 km/h 54% 0.0 mm 237 W/m2
16:00 24.6 °C 15.0 °C 1011.1 hPa North 14.8 km/h 20.9 km/h 55% 0.0 mm 207 W/m2
16:05 24.5 °C 15.2 °C 1010.7 hPa North 6.1 km/h 18.3 km/h 56% 0.0 mm 179 W/m2
16:11 24.2 °C 15.2 °C 1010.7 hPa North 8.7 km/h 18.3 km/h 57% 0.0 mm 150 W/m2
16:17 24.0 °C 15.2 °C 1011.1 hPa North 7.2 km/h 18.3 km/h 58% 0.0 mm 150 W/m2
16:23 23.9 °C 15.4 °C 1010.7 hPa North 9.7 km/h 17.2 km/h 59% 0.0 mm 160 W/m2
16:30 23.9 °C 15.7 °C 1010.7 hPa North 2.6 km/h 17.2 km/h 60% 0.0 mm 144 W/m2
16:35 23.9 °C 15.7 °C 1010.7 hPa North 6.1 km/h 15.8 km/h 60% 0.0 mm 137 W/m2
16:41 23.9 °C 15.7 °C 1010.7 hPa NNE 8.7 km/h 15.8 km/h 60% 0.0 mm 134 W/m2
16:47 23.9 °C 15.9 °C 1010.7 hPa NNE 5.0 km/h 15.8 km/h 61% 0.0 mm 103 W/m2
16:53 23.6 °C 15.7 °C 1011.1 hPa NE 11.1 km/h 14.8 km/h 61% 0.0 mm 96 W/m2
17:00 23.4 °C 15.7 °C 1011.1 hPa NNE 3.5 km/h 15.8 km/h 62% 0.0 mm 83 W/m2
17:05 23.3 °C 16.1 °C 1010.7 hPa NE 6.1 km/h 15.8 km/h 64% 0.0 mm 70 W/m2
17:11 23.0 °C 15.8 °C 1010.7 hPa NNE 6.1 km/h 14.8 km/h 64% 0.0 mm 59 W/m2
17:17 22.8 °C 15.2 °C 1010.7 hPa North 18.3 km/h 24.5 km/h 62% 0.0 mm 52 W/m2
17:23 22.6 °C 15.2 °C 1011.1 hPa North 15.8 km/h 24.5 km/h 63% 0.0 mm 43 W/m2
17:30 22.4 °C 15.3 °C 1011.1 hPa North 14.8 km/h 23.3 km/h 64% 0.0 mm 33 W/m2
17:35 22.3 °C 14.9 °C 1011.1 hPa North 7.2 km/h 23.3 km/h 63% 0.0 mm 33 W/m2
17:41 22.2 °C 14.8 °C 1011.1 hPa NNE 11.1 km/h 27.0 km/h 63% 0.0 mm 29 W/m2
17:47 22.2 °C 14.6 °C 1011.1 hPa North 13.4 km/h 27.0 km/h 62% 0.0 mm 23 W/m2
17:53 22.2 °C 14.6 °C 1011.1 hPa North 12.2 km/h 27.0 km/h 62% 0.0 mm 18 W/m2
18:00 22.2 °C 14.6 °C 1011.4 hPa NNE 13.4 km/h 23.3 km/h 62% 0.0 mm 14 W/m2
18:05 22.2 °C 14.6 °C 1011.4 hPa North 21.9 km/h 28.0 km/h 62% 0.0 mm 13 W/m2
18:11 22.1 °C 14.5 °C 1011.4 hPa NNE 12.2 km/h 28.0 km/h 62% 0.0 mm 10 W/m2
18:17 22.0 °C 14.4 °C 1011.4 hPa NNE 8.7 km/h 23.3 km/h 62% 0.0 mm 7 W/m2
18:23 21.8 °C 14.7 °C 1011.4 hPa North 13.4 km/h 20.9 km/h 64% 0.0 mm 5 W/m2
18:30 21.8 °C 14.7 °C 1011.4 hPa North 9.7 km/h 20.9 km/h 64% 0.0 mm 4 W/m2
18:35 21.5 °C 14.9 °C 1011.7 hPa North 9.7 km/h 21.9 km/h 66% 0.0 mm 3 W/m2
18:41 21.1 °C 15.2 °C 1011.4 hPa North 8.7 km/h 19.5 km/h 69% 0.0 mm 2 W/m2
18:47 20.7 °C 15.5 °C 1011.7 hPa North 12.2 km/h 23.3 km/h 72% 0.0 mm 2 W/m2
18:53 20.5 °C 15.7 °C 1011.7 hPa North 7.2 km/h 24.5 km/h 74% 0.0 mm 1 W/m2
19:00 20.2 °C 15.8 °C 1011.7 hPa NNE 5.0 km/h 14.8 km/h 76% 0.3 mm 0 W/m2
19:05 19.9 °C 15.9 °C 1011.4 hPa NNE 6.1 km/h 14.8 km/h 78% 0.5 mm 0 W/m2
19:11 19.5 °C 16.2 °C 1011.7 hPa NE 6.1 km/h 14.8 km/h 81% 1.0 mm 0 W/m2
19:17 19.2 °C 16.4 °C 1011.7 hPa NE 5.0 km/h 14.8 km/h 84% 1.0 mm 0 W/m2
19:23 19.1 °C 16.3 °C 1011.7 hPa NE 3.5 km/h 14.8 km/h 84% 1.0 mm 0 W/m2
19:30 18.9 °C 16.5 °C 1011.7 hPa NE 5.0 km/h 12.2 km/h 86% 1.0 mm 0 W/m2
19:35 18.8 °C 16.4 °C 1011.7 hPa NNE 3.5 km/h 11.1 km/h 86% 1.3 mm 0 W/m2
19:41 18.8 °C 16.4 °C 1011.7 hPa Calm   13.4 km/h 86% 1.3 mm 0 W/m2
19:47 18.7 °C 16.5 °C 1012.1 hPa NNE 2.6 km/h 6.1 km/h 87% 1.3 mm 0 W/m2
19:53 18.6 °C 16.4 °C 1011.7 hPa NE 1.1 km/h 8.7 km/h 87% 1.0 mm 0 W/m2
20:00 18.7 °C 16.5 °C 1011.7 hPa Calm   8.7 km/h 87% 1.0 mm 0 W/m2
20:05 18.7 °C 16.5 °C 1011.7 hPa Calm   7.2 km/h 87% 0.5 mm 0 W/m2
20:11 18.8 °C 16.4 °C 1012.1 hPa NE 2.6 km/h 8.7 km/h 86% 0.3 mm 0 W/m2
20:17 18.9 °C 16.5 °C 1012.1 hPa Calm   8.7 km/h 86% 0.3 mm 0 W/m2
20:23 19.1 °C 16.3 °C 1012.1 hPa Calm   6.1 km/h 84% 0.3 mm 0 W/m2
20:30 19.2 °C 16.4 °C 1012.1 hPa Calm   7.2 km/h 84% 0.3 mm 0 W/m2
20:35 19.3 °C 16.3 °C 1012.4 hPa NNE 3.5 km/h 9.7 km/h 83% 0.0 mm 0 W/m2
20:41 19.6 °C 16.1 °C 1012.1 hPa North 6.1 km/h 19.5 km/h 80% 0.0 mm 0 W/m2
20:47 20.0 °C 15.8 °C 1012.1 hPa North 3.5 km/h 19.5 km/h 77% 0.0 mm 0 W/m2
20:53 20.1 °C 15.8 °C 1012.1 hPa NNE 6.1 km/h 14.8 km/h 76% 0.0 mm 0 W/m2
21:00 20.1 °C 15.8 °C 1012.1 hPa North 6.1 km/h 14.8 km/h 76% 0.0 mm 0 W/m2
21:05 20.2 °C 15.7 °C 1012.1 hPa North 6.1 km/h 14.8 km/h 75% 0.0 mm 0 W/m2
21:11 20.1 °C 15.8 °C 1012.1 hPa North 3.5 km/h 14.8 km/h 76% 0.0 mm 0 W/m2
21:17 19.8 °C 16.1 °C 1012.1 hPa NNE 8.7 km/h 15.8 km/h 79% 0.3 mm 0 W/m2
21:23 19.7 °C 15.9 °C 1012.1 hPa NNE 8.7 km/h 18.3 km/h 79% 0.3 mm 0 W/m2
21:30 19.8 °C 15.9 °C 1012.4 hPa NNE 9.7 km/h 21.9 km/h 78% 0.3 mm 0 W/m2
21:35 20.0 °C 15.7 °C 1012.1 hPa North 14.8 km/h 21.9 km/h 76% 0.3 mm 0 W/m2
21:41 20.1 °C 15.6 °C 1012.1 hPa North 7.2 km/h 21.9 km/h 75% 0.3 mm 0 W/m2
21:47 20.1 °C 15.3 °C 1012.1 hPa North 6.1 km/h 15.8 km/h 74% 0.3 mm 0 W/m2
21:53 20.4 °C 15.2 °C 1012.1 hPa North 9.7 km/h 27.0 km/h 72% 0.3 mm 0 W/m2
22:00 20.6 °C 14.9 °C 1012.1 hPa NNE 8.7 km/h 30.6 km/h 70% 0.3 mm 0 W/m2
22:05 20.7 °C 15.1 °C 1012.1 hPa NNE 8.7 km/h 24.5 km/h 70% 0.3 mm 0 W/m2
22:11 20.7 °C 15.1 °C 1012.1 hPa NNE 7.2 km/h 21.9 km/h 70% 0.3 mm 0 W/m2
22:17 20.7 °C 15.1 °C 1012.1 hPa NE 7.2 km/h 24.5 km/h 70% 0.0 mm 0 W/m2
22:23 20.7 °C 15.1 °C 1012.1 hPa NE 8.7 km/h 24.5 km/h 70% 0.0 mm 0 W/m2
22:30 20.8 °C 14.9 °C 1012.1 hPa ENE 7.2 km/h 18.3 km/h 69% 0.0 mm 0 W/m2
22:35 20.8 °C 14.9 °C 1012.4 hPa NE 9.7 km/h 19.5 km/h 69% 0.0 mm 0 W/m2
22:41 20.8 °C 14.9 °C 1012.4 hPa ENE 6.1 km/h 20.9 km/h 69% 0.0 mm 0 W/m2
22:47 20.7 °C 14.8 °C 1012.4 hPa ENE 8.7 km/h 19.5 km/h 69% 0.0 mm 0 W/m2
22:53 20.7 °C 15.1 °C 1012.4 hPa NNE 6.1 km/h 15.8 km/h 70% 0.0 mm 0 W/m2
23:00 20.3 °C 15.3 °C 1012.4 hPa NNE 12.2 km/h 19.5 km/h 73% 0.3 mm 0 W/m2
23:05 20.1 °C 15.3 °C 1012.4 hPa NE 9.7 km/h 23.3 km/h 74% 0.3 mm 0 W/m2
23:11 20.0 °C 15.4 °C 1012.4 hPa NE 9.7 km/h 23.3 km/h 75% 0.3 mm 0 W/m2
23:17 19.9 °C 15.6 °C 1012.1 hPa NE 11.1 km/h 20.9 km/h 76% 0.3 mm 0 W/m2
23:23 20.0 °C 15.4 °C 1012.1 hPa NNE 8.7 km/h 20.9 km/h 75% 0.3 mm 0 W/m2
23:30 19.6 °C 15.4 °C 1012.1 hPa NNE 9.7 km/h 23.3 km/h 77% 0.5 mm 0 W/m2
23:35 19.4 °C 15.7 °C 1012.1 hPa NNE 5.0 km/h 23.3 km/h 79% 0.5 mm 0 W/m2
23:41 19.2 °C 15.7 °C 1012.1 hPa NNE 2.6 km/h 17.2 km/h 80% 0.5 mm 0 W/m2
23:47 19.1 °C 15.8 °C 1012.1 hPa NNE 6.1 km/h 15.8 km/h 81% 0.5 mm 0 W/m2
23:53 19.2 °C 15.5 °C 1012.1 hPa NNE 2.6 km/h 18.3 km/h 79% 0.5 mm 0 W/m2
Northern Hawkes Bay. New Zealand Historic Data
Compliments of Weather Underground - 1.75 mb